Time;durP1;ratioP1;P1;durP2;ratioP2;P2;SDS_P1;SDS_P2;PMS_P1;PMS_P2;Temp;Humidity;BMP_temperature;BMP_pressure;BME280_temperature;BME280_humidity;BME280_pressure;Samples;Min_cycle;Max_cycle;Signal;HPM_P1;HPM_P2
2022/11/24 00:01:38;;;;;;;;;0.00;0.00;;;;;;;;5079446;27;45210;-94
2022/11/24 00:04:04;;;;;;;;;0.00;0.00;;;;;;;;5081479;27;45309;-94
2022/11/24 00:06:30;;;;;;;;;0.00;0.00;;;;;;;;5087211;27;47637;-95
2022/11/24 00:08:56;;;;;;;;;0.00;0.00;;;;;;;;5089055;27;45099;-94
2022/11/24 00:11:22;;;;;;;;;0.00;0.00;;;;;;;;5101235;27;45682;-96
2022/11/24 00:13:48;;;;;;;;;0.00;0.00;;;;;;;;5083280;27;45352;-95
2022/11/24 00:16:14;;;;;;;;;0.00;0.00;;;;;;;;5100893;27;45389;-95
2022/11/24 00:18:40;;;;;;;;;0.00;0.00;;;;;;;;5104474;27;45141;-95
2022/11/24 00:21:05;;;;;;;;;0.00;0.00;;;;;;;;5097709;28;43862;-94
2022/11/24 00:23:31;;;;;;;;;0.00;0.00;;;;;;;;5096745;28;40874;-95
2022/11/24 00:26:01;;;;;;;;;0.00;0.00;;;;;;;;5107769;28;41334;-96
2022/11/24 00:28:27;;;;;;;;;0.00;0.00;;;;;;;;5105697;27;27855;-96
2022/11/24 00:30:52;;;;;;;;;0.00;0.00;;;;;;;;5111835;27;27775;-95
2022/11/24 00:33:17;;;;;;;;;0.00;0.00;;;;;;;;5112418;27;28104;-95
2022/11/24 00:35:42;;;;;;;;;0.00;0.00;;;;;;;;5121169;27;23022;-96
2022/11/24 00:38:07;;;;;;;;;0.00;0.00;;;;;;;;5136964;27;10092;-96
2022/11/24 00:40:32;;;;;;;;;0.00;0.00;;;;;;;;5118526;27;8810;-96
2022/11/24 00:42:59;;;;;;;;;0.00;0.00;;;;;;;;5136195;27;8819;-96
2022/11/24 00:45:24;;;;;;;;;0.00;0.00;;;;;;;;5118117;27;8921;-96
2022/11/24 00:47:49;;;;;;;;;0.00;0.00;;;;;;;;5118375;27;8901;-96
2022/11/24 00:50:14;;;;;;;;;0.00;0.00;;;;;;;;5117779;27;9522;-95
2022/11/24 00:52:40;;;;;;;;;0.00;0.00;;;;;;;;5136836;27;9432;-95
2022/11/24 00:55:05;;;;;;;;;0.00;0.00;;;;;;;;5118429;27;8822;-96
2022/11/24 00:57:33;;;;;;;;;0.00;0.00;;;;;;;;5117959;27;8848;-95
2022/11/24 00:59:58;;;;;;;;;0.00;0.00;;;;;;;;5114406;28;8812;-96
2022/11/24 01:02:23;;;;;;;;;0.00;0.00;;;;;;;;5097685;28;8951;-96
2022/11/24 01:04:48;;;;;;;;;0.00;0.00;;;;;;;;5115310;28;9267;-95
2022/11/24 01:07:13;;;;;;;;;0.00;0.00;;;;;;;;5115796;28;9035;-96
2022/11/24 01:09:41;;;;;;;;;0.00;0.00;;;;;;;;5115525;28;8891;-94
2022/11/24 01:12:07;;;;;;;;;0.00;0.00;;;;;;;;5114308;27;9719;-96
2022/11/24 01:14:32;;;;;;;;;0.00;0.00;;;;;;;;5114498;28;8781;-95
2022/11/24 01:16:58;;;;;;;;;0.00;0.00;;;;;;;;5114307;28;8832;-95
2022/11/24 01:19:23;;;;;;;;;0.00;0.00;;;;;;;;5113700;28;8828;-96
2022/11/24 01:21:48;;;;;;;;;0.00;0.00;;;;;;;;5097274;28;8878;-96
2022/11/24 01:24:14;;;;;;;;;0.00;0.00;;;;;;;;5115326;27;8890;-95
2022/11/24 01:26:39;;;;;;;;;0.00;0.00;;;;;;;;5114640;28;8781;-96
2022/11/24 01:29:04;;;;;;;;;0.00;0.00;;;;;;;;5126368;27;8861;-96
2022/11/24 01:31:31;;;;;;;;;0.00;0.00;;;;;;;;5136337;27;8812;-96
2022/11/24 01:33:56;;;;;;;;;0.00;0.00;;;;;;;;5142544;27;8788;-95
2022/11/24 01:36:22;;;;;;;;;0.00;0.00;;;;;;;;5144448;27;8864;-96
2022/11/24 01:38:47;;;;;;;;;0.00;0.00;;;;;;;;5137972;27;8833;-96
2022/11/24 01:41:14;;;;;;;;;0.00;0.00;;;;;;;;5124754;27;8818;-95
2022/11/24 01:43:43;;;;;;;;;0.00;0.00;;;;;;;;5124710;27;8807;-96
2022/11/24 01:46:18;;;;;;;;;0.00;0.00;;;;;;;;5111583;27;9051;-95
2022/11/24 01:48:45;;;;;;;;;0.00;0.00;;;;;;;;5117147;27;8873;-94
2022/11/24 01:51:17;;;;;;;;;0.00;0.00;;;;;;;;5135558;27;8786;-96
2022/11/24 01:53:44;;;;;;;;;0.00;0.00;;;;;;;;5116727;27;8826;-96
2022/11/24 01:56:09;;;;;;;;;0.00;0.00;;;;;;;;5117524;27;8760;-96
2022/11/24 01:58:35;;;;;;;;;0.00;0.00;;;;;;;;5117176;27;8818;-96
2022/11/24 02:01:01;;;;;;;;;0.00;0.00;;;;;;;;5116558;27;8806;-96
2022/11/24 02:03:29;;;;;;;;;0.00;0.00;;;;;;;;5116371;27;8814;-95
2022/11/24 02:06:17;;;;;;;;;0.00;0.00;;;;;;;;5116994;27;8790;-96
2022/11/24 02:09:01;;;;;;;;;0.00;0.00;;;;;;;;5116899;27;8801;-96
2022/11/24 02:11:28;;;;;;;;;0.00;0.00;;;;;;;;5116584;27;8922;-95
2022/11/24 02:13:54;;;;;;;;;0.00;0.00;;;;;;;;5116817;27;8743;-95
2022/11/24 02:16:19;;;;;;;;;0.00;0.00;;;;;;;;5134994;27;8774;-95
2022/11/24 02:18:44;;;;;;;;;0.00;0.00;;;;;;;;5116373;27;8893;-95
2022/11/24 02:21:14;;;;;;;;;0.00;0.00;;;;;;;;5134432;27;8822;-95
2022/11/24 02:23:39;;;;;;;;;0.00;0.00;;;;;;;;5116918;27;8924;-95
2022/11/24 02:26:04;;;;;;;;;0.00;0.00;;;;;;;;5134803;27;8844;-95
2022/11/24 02:28:30;;;;;;;;;0.00;0.00;;;;;;;;5116386;27;10612;-95
2022/11/24 02:30:55;;;;;;;;;0.00;0.00;;;;;;;;5134960;27;8790;-96
2022/11/24 02:33:21;;;;;;;;;0.00;0.00;;;;;;;;5115948;27;8795;-95
2022/11/24 02:35:46;;;;;;;;;0.00;0.00;;;;;;;;5135086;27;8802;-96
2022/11/24 02:38:12;;;;;;;;;0.00;0.00;;;;;;;;5117415;27;8794;-95
2022/11/24 02:40:38;;;;;;;;;0.00;0.00;;;;;;;;5124807;27;8757;-95
2022/11/24 02:43:06;;;;;;;;;0.00;0.00;;;;;;;;5124834;27;8830;-96
2022/11/24 02:45:31;;;;;;;;;0.00;0.00;;;;;;;;5124361;27;8727;-96
2022/11/24 02:47:57;;;;;;;;;0.00;0.00;;;;;;;;5124827;27;8790;-95
2022/11/24 02:50:22;;;;;;;;;0.00;0.00;;;;;;;;5124853;27;8925;-96
2022/11/24 02:52:47;;;;;;;;;0.00;0.00;;;;;;;;5124743;27;8799;-95
2022/11/24 02:55:12;;;;;;;;;0.00;0.00;;;;;;;;5137808;27;8787;-95
2022/11/24 02:57:37;;;;;;;;;0.00;0.00;;;;;;;;5116525;27;8864;-95
2022/11/24 03:00:03;;;;;;;;;0.33;0.33;;;;;;;;5112341;28;8840;-93
2022/11/24 03:02:28;;;;;;;;;0.00;0.00;;;;;;;;5113998;28;9197;-96
2022/11/24 03:04:53;;;;;;;;;0.00;0.00;;;;;;;;5095469;28;8797;-94
2022/11/24 03:07:19;;;;;;;;;0.00;0.00;;;;;;;;5114078;28;8879;-96
2022/11/24 03:09:44;;;;;;;;;0.00;0.00;;;;;;;;5113786;28;8785;-95
2022/11/24 03:12:09;;;;;;;;;0.00;0.00;;;;;;;;5095429;28;8836;-95
2022/11/24 03:14:34;;;;;;;;;0.00;0.00;;;;;;;;5094615;28;8874;-95
2022/11/24 03:16:59;;;;;;;;;0.00;0.00;;;;;;;;5095622;28;8945;-95
2022/11/24 03:19:25;;;;;;;;;0.00;0.00;;;;;;;;5112228;28;8974;-95
2022/11/24 03:21:50;;;;;;;;;0.00;0.00;;;;;;;;5095488;28;8825;-95
2022/11/24 03:24:15;;;;;;;;;0.00;0.00;;;;;;;;5112469;28;8824;-94
2022/11/24 03:26:41;;;;;;;;;0.00;0.00;;;;;;;;5095701;28;8949;-96
2022/11/24 03:29:06;;;;;;;;;0.00;0.00;;;;;;;;5111224;27;8819;-95
2022/11/24 03:31:31;;;;;;;;;0.00;0.00;;;;;;;;5116051;27;8802;-95
2022/11/24 03:33:56;;;;;;;;;0.00;0.00;;;;;;;;5115404;27;8821;-95
2022/11/24 03:36:21;;;;;;;;;0.00;0.00;;;;;;;;5115499;27;9337;-95
2022/11/24 03:38:47;;;;;;;;;0.00;0.00;;;;;;;;5117542;27;8912;-94
2022/11/24 03:41:12;;;;;;;;;0.00;0.00;;;;;;;;5119424;27;8926;-96
2022/11/24 03:43:37;;;;;;;;;0.00;0.00;;;;;;;;5119291;27;8806;-95
2022/11/24 03:46:02;;;;;;;;;0.00;0.00;;;;;;;;5119253;27;8811;-95
2022/11/24 03:48:27;;;;;;;;;0.00;0.00;;;;;;;;5120254;27;8822;-96
2022/11/24 03:50:56;;;;;;;;;0.00;0.00;;;;;;;;5109114;28;8831;-95
2022/11/24 03:53:22;;;;;;;;;0.00;0.00;;;;;;;;5107066;28;8910;-96
2022/11/24 03:55:48;;;;;;;;;0.00;0.00;;;;;;;;5107241;28;8895;-95
2022/11/24 03:58:13;;;;;;;;;0.00;0.00;;;;;;;;5106852;28;8827;-96
2022/11/24 04:00:38;;;;;;;;;0.00;0.00;;;;;;;;5107071;28;9035;-94
2022/11/24 04:03:03;;;;;;;;;0.00;0.00;;;;;;;;5125099;28;8803;-95
2022/11/24 04:05:28;;;;;;;;;0.00;0.00;;;;;;;;5119086;28;8796;-95
2022/11/24 04:07:55;;;;;;;;;0.00;0.00;;;;;;;;5116911;28;9596;-95
2022/11/24 04:10:20;;;;;;;;;0.00;0.00;;;;;;;;5098292;28;8816;-96
2022/11/24 04:12:45;;;;;;;;;0.00;0.00;;;;;;;;5097431;28;8885;-95
2022/11/24 04:15:12;;;;;;;;;0.00;0.00;;;;;;;;5098299;28;8808;-95
2022/11/24 04:17:37;;;;;;;;;0.00;0.00;;;;;;;;5098479;28;8892;-96
2022/11/24 04:20:02;;;;;;;;;0.00;0.00;;;;;;;;5099391;28;8829;-96
2022/11/24 04:22:28;;;;;;;;;0.00;0.00;;;;;;;;5116164;28;8901;-96
2022/11/24 04:24:53;;;;;;;;;0.00;0.00;;;;;;;;5098204;28;8836;-96
2022/11/24 04:27:18;;;;;;;;;0.00;0.00;;;;;;;;5099272;27;8800;-95
2022/11/24 04:29:43;;;;;;;;;0.00;0.00;;;;;;;;5136995;27;8779;-96
2022/11/24 04:32:08;;;;;;;;;0.00;0.00;;;;;;;;5118492;27;8924;-95
2022/11/24 04:34:34;;;;;;;;;0.00;0.00;;;;;;;;5118620;27;8925;-95
2022/11/24 04:36:59;;;;;;;;;0.00;0.00;;;;;;;;5118607;27;8813;-95
2022/11/24 04:39:24;;;;;;;;;0.00;0.00;;;;;;;;5118400;27;8803;-96
2022/11/24 04:41:49;;;;;;;;;0.00;0.00;;;;;;;;5118121;27;8803;-95
2022/11/24 04:44:15;;;;;;;;;0.00;0.00;;;;;;;;5118182;27;8895;-96
2022/11/24 04:46:40;;;;;;;;;0.00;0.00;;;;;;;;5118378;27;8814;-96
2022/11/24 04:49:05;;;;;;;;;0.00;0.00;;;;;;;;5117243;27;9582;-96
2022/11/24 04:51:30;;;;;;;;;0.00;0.00;;;;;;;;5136599;27;9326;-95
2022/11/24 04:53:55;;;;;;;;;0.00;0.00;;;;;;;;5136690;27;8910;-95
2022/11/24 04:56:21;;;;;;;;;0.00;0.00;;;;;;;;5136688;27;8810;-96
2022/11/24 04:58:48;;;;;;;;;0.00;0.00;;;;;;;;5137035;27;8821;-96
2022/11/24 05:01:14;;;;;;;;;0.00;0.00;;;;;;;;5122781;28;8862;-95
2022/11/24 05:03:39;;;;;;;;;0.00;0.00;;;;;;;;5124072;28;8928;-96
2022/11/24 05:06:05;;;;;;;;;0.00;0.00;;;;;;;;5105823;28;8812;-94
2022/11/24 05:08:30;;;;;;;;;0.00;0.00;;;;;;;;5105054;28;8789;-96
2022/11/24 05:10:55;;;;;;;;;0.00;0.00;;;;;;;;5104202;28;8848;-96
2022/11/24 05:13:20;;;;;;;;;0.00;0.00;;;;;;;;5125684;27;8830;-96
2022/11/24 05:15:46;;;;;;;;;0.00;0.00;;;;;;;;5121489;27;8883;-96
2022/11/24 05:18:13;;;;;;;;;0.00;0.00;;;;;;;;5135936;27;8821;-96
2022/11/24 05:20:38;;;;;;;;;6.00;6.00;;;;;;;;5136192;27;8770;-95
2022/11/24 05:23:05;;;;;;;;;0.00;0.00;;;;;;;;5136138;27;8819;-96
2022/11/24 05:25:31;;;;;;;;;0.00;0.00;;;;;;;;5135944;27;8786;-95
2022/11/24 05:28:00;;;;;;;;;0.00;0.00;;;;;;;;5138334;27;8790;-96
2022/11/24 05:30:25;;;;;;;;;0.00;0.00;;;;;;;;5118419;27;8899;-96
2022/11/24 05:32:50;;;;;;;;;0.00;0.00;;;;;;;;5117296;27;8791;-95
2022/11/24 05:35:15;;;;;;;;;0.00;0.00;;;;;;;;5117624;27;8814;-95
2022/11/24 05:37:41;;;;;;;;;0.00;0.00;;;;;;;;5117624;27;8806;-94
2022/11/24 05:40:06;;;;;;;;;0.00;0.00;;;;;;;;5098406;28;8832;-95
2022/11/24 05:42:40;;;;;;;;;0.00;0.00;;;;;;;;5115540;28;8875;-95
2022/11/24 05:45:10;;;;;;;;;0.00;0.00;;;;;;;;5096916;28;8796;-96
2022/11/24 05:47:36;;;;;;;;;0.00;0.00;;;;;;;;5115131;28;8939;-96
2022/11/24 05:50:01;;;;;;;;;0.00;0.00;;;;;;;;5102876;28;8931;-96
2022/11/24 05:52:26;;;;;;;;;0.00;0.00;;;;;;;;5097258;28;8903;-95
2022/11/24 05:54:51;;;;;;;;;0.00;0.00;;;;;;;;5096184;28;8793;-95
2022/11/24 05:57:16;;;;;;;;;0.00;0.00;;;;;;;;5096988;28;9433;-96
2022/11/24 05:59:42;;;;;;;;;0.00;0.00;;;;;;;;5096606;28;8808;-95
2022/11/24 06:02:08;;;;;;;;;0.00;0.00;;;;;;;;5113904;28;8927;-95
2022/11/24 06:04:34;;;;;;;;;0.00;0.00;;;;;;;;5096192;28;8796;-96
2022/11/24 06:06:59;;;;;;;;;0.00;0.00;;;;;;;;5096904;28;8870;-95
2022/11/24 06:09:24;;;;;;;;;0.00;0.00;;;;;;;;5096043;28;8805;-94
2022/11/24 06:11:49;;;;;;;;;0.00;0.00;;;;;;;;5103987;28;8836;-95
2022/11/24 06:14:14;;;;;;;;;0.00;0.00;;;;;;;;5103903;28;8899;-95
2022/11/24 06:16:40;;;;;;;;;0.00;0.00;;;;;;;;5104144;28;8816;-94
2022/11/24 06:19:05;;;;;;;;;0.00;0.00;;;;;;;;5122537;28;8878;-95
2022/11/24 06:21:30;;;;;;;;;0.00;0.00;;;;;;;;5122907;27;8793;-96
2022/11/24 06:23:55;;;;;;;;;0.00;0.00;;;;;;;;5122505;28;8835;-95
2022/11/24 06:26:21;;;;;;;;;0.00;0.00;;;;;;;;5101443;28;8821;-96
2022/11/24 06:28:46;;;;;;;;;0.00;0.00;;;;;;;;5096263;28;9776;-96
2022/11/24 06:31:11;;;;;;;;;0.00;0.00;;;;;;;;5114587;28;9031;-95
2022/11/24 06:33:37;;;;;;;;;0.00;0.00;;;;;;;;5114445;28;8929;-95
2022/11/24 06:36:04;;;;;;;;;0.00;0.00;;;;;;;;5114863;28;9576;-96
2022/11/24 06:38:29;;;;;;;;;0.00;0.00;;;;;;;;5095645;28;8797;-95
2022/11/24 06:41:02;;;;;;;;;0.00;0.00;;;;;;;;5096844;28;8792;-95
2022/11/24 06:43:28;;;;;;;;;0.00;0.00;;;;;;;;5128660;27;8779;-96
2022/11/24 06:45:53;;;;;;;;;0.00;0.00;;;;;;;;5116747;27;8864;-96
2022/11/24 06:48:18;;;;;;;;;0.00;0.00;;;;;;;;5116254;27;8822;-96
2022/11/24 06:50:43;;;;;;;;;0.00;0.00;;;;;;;;5134885;27;8800;-96
2022/11/24 06:53:08;;;;;;;;;0.00;0.00;;;;;;;;5117625;27;9272;-94
2022/11/24 06:55:34;;;;;;;;;0.00;0.00;;;;;;;;5118123;27;8794;-95
2022/11/24 06:57:59;;;;;;;;;0.00;0.00;;;;;;;;5116117;27;8897;-95
2022/11/24 07:00:24;;;;;;;;;0.00;0.00;;;;;;;;5134602;27;8790;-96
2022/11/24 07:02:49;;;;;;;;;0.00;0.00;;;;;;;;5115818;27;8845;-96
2022/11/24 07:05:15;;;;;;;;;0.00;0.00;;;;;;;;5116019;27;8909;-94
2022/11/24 07:07:40;;;;;;;;;0.00;0.00;;;;;;;;5115823;27;9376;-95
2022/11/24 07:10:05;;;;;;;;;0.00;0.00;;;;;;;;5112222;28;8804;-96
2022/11/24 07:12:34;;;;;;;;;0.00;0.00;;;;;;;;5112154;28;8910;-96
2022/11/24 07:14:59;;;;;;;;;0.00;0.00;;;;;;;;5111975;28;8809;-96
2022/11/24 07:17:24;;;;;;;;;0.00;0.00;;;;;;;;5112937;28;8816;-95
2022/11/24 07:19:49;;;;;;;;;0.00;0.00;;;;;;;;5113145;28;8812;-94
2022/11/24 07:22:14;;;;;;;;;0.00;0.00;;;;;;;;5121923;28;9086;-95
2022/11/24 07:24:40;;;;;;;;;0.00;0.00;;;;;;;;5120238;28;9511;-94
2022/11/24 07:27:05;;;;;;;;;0.00;0.00;;;;;;;;5118941;28;9488;-92
2022/11/24 07:29:30;;;;;;;;;0.00;0.00;;;;;;;;5143266;27;8905;-88
2022/11/24 07:31:55;;;;;;;;;0.00;0.00;;;;;;;;5124653;27;8879;-93
2022/11/24 07:34:21;;;;;;;;;0.00;0.00;;;;;;;;5122275;27;8875;-92
2022/11/24 07:36:46;;;;;;;;;0.00;0.00;;;;;;;;5117053;27;8814;-91
2022/11/24 07:39:11;;;;;;;;;0.00;0.00;;;;;;;;5115217;27;8805;-91
2022/11/24 07:41:36;;;;;;;;;0.00;0.00;;;;;;;;5116009;27;8831;-93
2022/11/24 07:44:01;;;;;;;;;0.00;0.00;;;;;;;;5130538;27;8824;-93
2022/11/24 07:46:27;;;;;;;;;0.00;0.00;;;;;;;;5131748;27;9645;-92
2022/11/24 07:48:52;;;;;;;;;0.00;0.00;;;;;;;;5134340;27;9529;-94
2022/11/24 07:51:17;;;;;;;;;0.00;0.00;;;;;;;;5115069;27;8798;-92
2022/11/24 07:53:44;;;;;;;;;0.00;0.00;;;;;;;;5133210;27;9585;-92
2022/11/24 07:56:09;;;;;;;;;0.00;0.00;;;;;;;;5098854;27;8783;-96
2022/11/24 07:58:35;;;;;;;;;0.00;0.00;;;;;;;;5134121;27;8866;-93
2022/11/24 08:01:11;;;;;;;;;0.00;0.00;;;;;;;;5114440;27;9084;-96
2022/11/24 08:03:36;;;;;;;;;0.00;0.00;;;;;;;;5117047;27;8779;-93
2022/11/24 08:06:02;;;;;;;;;0.00;0.00;;;;;;;;5132200;27;8779;-93
2022/11/24 08:08:27;;;;;;;;;0.00;0.00;;;;;;;;5116074;27;8794;-96
2022/11/24 08:10:52;;;;;;;;;0.00;0.00;;;;;;;;5117390;27;8829;-92
2022/11/24 08:13:21;;;;;;;;;0.00;0.00;;;;;;;;5129008;27;8802;-96
2022/11/24 08:15:46;;;;;;;;;0.00;0.00;;;;;;;;5139693;27;8762;-96
2022/11/24 08:18:13;;;;;;;;;0.00;0.00;;;;;;;;5137073;27;8798;-96
2022/11/24 08:20:39;;;;;;;;;0.00;0.00;;;;;;;;5119531;27;8775;-96
2022/11/24 08:23:04;;;;;;;;;0.00;0.00;;;;;;;;5113581;28;8854;-96
2022/11/24 08:25:32;;;;;;;;;0.00;0.00;;;;;;;;5137107;27;8807;-96
2022/11/24 08:27:58;;;;;;;;;0.00;0.00;;;;;;;;5139368;27;8741;-96
2022/11/24 08:30:23;;;;;;;;;0.00;0.00;;;;;;;;5155659;27;9444;-96
2022/11/24 08:32:49;;;;;;;;;0.00;0.00;;;;;;;;5121104;27;8806;-96
2022/11/24 08:35:15;;;;;;;;;0.00;0.00;;;;;;;;5129166;27;8782;-96
2022/11/24 08:37:41;;;;;;;;;0.00;0.00;;;;;;;;5143431;27;8740;-96
2022/11/24 08:40:08;;;;;;;;;0.00;0.00;;;;;;;;5145903;27;8821;-96
2022/11/24 08:42:33;;;;;;;;;0.00;0.00;;;;;;;;5126099;27;8804;-96
2022/11/24 08:44:58;;;;;;;;;0.00;0.00;;;;;;;;5139458;27;8806;-96
2022/11/24 08:47:30;;;;;;;;;0.00;0.00;;;;;;;;5160033;27;8743;-96
2022/11/24 08:49:55;;;;;;;;;0.00;0.00;;;;;;;;5133325;27;8785;-96
2022/11/24 08:52:21;;;;;;;;;0.00;0.00;;;;;;;;5131561;27;8814;-94
2022/11/24 08:54:46;;;;;;;;;0.00;0.00;;;;;;;;5120347;27;9581;-95
2022/11/24 08:57:12;;;;;;;;;0.00;0.00;;;;;;;;5123896;27;8782;-92
2022/11/24 08:59:37;;;;;;;;;0.00;0.00;;;;;;;;5118283;27;8796;-94
2022/11/24 09:02:02;;;;;;;;;0.00;0.00;;;;;;;;5125005;27;8873;-95
2022/11/24 09:04:28;;;;;;;;;0.00;0.00;;;;;;;;5115003;27;8808;-96
2022/11/24 09:07:15;;;;;;;;;0.00;0.00;;;;;;;;5128672;27;8790;-96
2022/11/24 09:09:41;;;;;;;;;0.00;0.00;;;;;;;;5152993;27;8747;-96
2022/11/24 09:12:08;;;;;;;;;0.00;0.00;;;;;;;;5125912;27;8849;-91
2022/11/24 09:14:34;;;;;;;;;0.00;0.00;;;;;;;;5124569;27;8810;-96
2022/11/24 09:17:03;;;;;;;;;0.00;0.00;;;;;;;;5124609;27;8811;-96
2022/11/24 09:19:31;;;;;;;;;0.00;0.00;;;;;;;;5146564;27;8751;-96
2022/11/24 09:22:21;;;;;;;;;0.00;0.00;;;;;;;;5110220;27;8754;-96
2022/11/24 09:25:09;;;;;;;;;0.00;0.00;;;;;;;;5098715;28;8753;-96
2022/11/24 09:28:25;;;;;;;;;0.00;0.00;;;;;;;;5080042;28;8766;-96
2022/11/24 09:33:29;;;;;;;;;0.00;0.00;;;;;;;;5228482;22;8886;-96
2022/11/24 09:35:55;;;;;;;;;0.00;0.00;;;;;;;;5068561;28;8756;-96
2022/11/24 09:38:21;;;;;;;;;0.00;0.00;;;;;;;;5062087;28;8806;-96
2022/11/24 09:40:47;;;;;;;;;0.00;0.00;;;;;;;;5062118;28;8856;-95
2022/11/24 09:43:18;;;;;;;;;0.00;0.00;;;;;;;;5060162;28;8796;-96
2022/11/24 09:46:02;;;;;;;;;0.00;0.00;;;;;;;;5049307;28;8751;-96
2022/11/24 09:48:31;;;;;;;;;0.00;0.00;;;;;;;;5058409;28;8791;-96
2022/11/24 09:50:58;;;;;;;;;0.00;0.00;;;;;;;;5073813;28;8743;-96
2022/11/24 09:53:30;;;;;;;;;0.00;0.00;;;;;;;;5061598;28;8756;-96
2022/11/24 09:56:02;;;;;;;;;0.00;0.00;;;;;;;;5061949;28;8750;-96
2022/11/24 09:58:47;;;;;;;;;0.00;0.00;;;;;;;;5043959;28;8753;-96
2022/11/24 10:01:23;;;;;;;;;0.00;0.00;;;;;;;;5060648;28;8752;-96
2022/11/24 10:03:51;;;;;;;;;0.00;0.00;;;;;;;;5051093;28;8770;-96
2022/11/24 10:09:58;;;;;;;;;0.00;0.00;;;;;;;;5058370;28;8710;-96
2022/11/24 10:15:18;;;;;;;;;0.00;0.00;;;;;;;;6042219;22;8766;-96
2022/11/24 10:17:49;;;;;;;;;0.00;0.00;;;;;;;;5137257;27;8761;-96
2022/11/24 10:20:25;;;;;;;;;0.00;0.00;;;;;;;;5122393;27;8881;-96
2022/11/24 10:23:00;;;;;;;;;0.00;0.00;;;;;;;;5122399;28;8739;-96
2022/11/24 10:25:32;;;;;;;;;0.00;0.00;;;;;;;;5122207;27;8791;-95
2022/11/24 10:28:00;;;;;;;;;0.00;0.00;;;;;;;;5110802;28;8911;-96
2022/11/24 10:30:26;;;;;;;;;1.00;1.00;;;;;;;;5136584;27;8742;-96
2022/11/24 10:32:56;;;;;;;;;0.00;0.00;;;;;;;;5140582;27;8754;-96
2022/11/24 10:35:34;;;;;;;;;0.00;0.00;;;;;;;;5116964;28;8777;-96
2022/11/24 10:38:05;;;;;;;;;0.00;0.00;;;;;;;;5102934;28;8915;-96
2022/11/24 10:40:49;;;;;;;;;0.00;0.00;;;;;;;;5098800;27;8814;-96
2022/11/24 10:43:14;;;;;;;;;0.00;0.00;;;;;;;;5116066;27;8821;-96
2022/11/24 10:45:40;;;;;;;;;0.00;0.00;;;;;;;;5095855;27;11577;-96
2022/11/24 10:48:10;;;;;;;;;0.00;0.00;;;;;;;;5104479;28;8829;-96
2022/11/24 10:50:36;;;;;;;;;0.00;0.00;;;;;;;;5107682;28;8773;-96
2022/11/24 10:53:21;;;;;;;;;0.00;0.00;;;;;;;;5119139;27;8831;-96
2022/11/24 10:55:55;;;;;;;;;0.00;0.00;;;;;;;;5106338;28;9011;-96
2022/11/24 10:58:25;;;;;;;;;0.00;0.00;;;;;;;;5105706;28;8891;-96
2022/11/24 11:00:51;;;;;;;;;0.00;0.00;;;;;;;;5099925;28;8814;-96
2022/11/24 11:03:20;;;;;;;;;0.00;0.00;;;;;;;;5098015;28;8826;-96
2022/11/24 11:05:53;;;;;;;;;0.00;0.00;;;;;;;;5098109;28;8868;-96
2022/11/24 11:08:20;;;;;;;;;0.00;0.00;;;;;;;;5098133;28;8875;-96
2022/11/24 11:10:46;;;;;;;;;0.00;0.00;;;;;;;;5098535;28;8836;-96
2022/11/24 11:13:22;;;;;;;;;0.00;0.00;;;;;;;;5098640;27;9711;-96
2022/11/24 11:15:47;;;;;;;;;0.00;0.00;;;;;;;;5100387;27;8941;-96
2022/11/24 11:18:16;;;;;;;;;0.00;0.00;;;;;;;;5128690;27;8976;-96
2022/11/24 11:20:50;;;;;;;;;0.00;0.00;;;;;;;;5118668;27;8798;-96
2022/11/24 11:23:20;;;;;;;;;0.00;0.00;;;;;;;;5118528;27;11453;-96
2022/11/24 11:25:45;;;;;;;;;0.00;0.00;;;;;;;;5117457;27;11434;-96
2022/11/24 11:28:17;;;;;;;;;0.00;0.00;;;;;;;;5122091;27;12137;-96
2022/11/24 11:31:04;;;;;;;;;0.00;0.00;;;;;;;;5118836;27;8822;-96
2022/11/24 11:33:30;;;;;;;;;0.00;0.00;;;;;;;;5117655;27;11341;-96
2022/11/24 11:35:56;;;;;;;;;0.00;0.00;;;;;;;;5128627;27;8743;-96
2022/11/24 11:38:22;;;;;;;;;0.00;0.00;;;;;;;;5127639;27;8801;-96
2022/11/24 11:40:48;;;;;;;;;0.00;0.00;;;;;;;;5120378;27;11396;-96
2022/11/24 11:43:16;;;;;;;;;0.00;0.00;;;;;;;;5119313;27;8881;-96
2022/11/24 11:45:45;;;;;;;;;0.00;0.00;;;;;;;;5111371;27;8845;-96
2022/11/24 11:48:28;;;;;;;;;0.00;0.00;;;;;;;;5126515;27;8820;-96
2022/11/24 11:50:58;;;;;;;;;0.00;0.00;;;;;;;;5119887;27;8817;-96
2022/11/24 11:53:30;;;;;;;;;0.00;0.00;;;;;;;;5121024;27;8813;-96
2022/11/24 11:55:55;;;;;;;;;0.00;0.00;;;;;;;;5128302;27;11421;-96
2022/11/24 11:58:31;;;;;;;;;0.00;0.00;;;;;;;;5134330;27;8823;-96
2022/11/24 12:01:04;;;;;;;;;0.00;0.00;;;;;;;;5124309;27;8796;-96
2022/11/24 12:03:48;;;;;;;;;0.00;0.00;;;;;;;;5126716;27;11388;-96
2022/11/24 12:06:21;;;;;;;;;0.00;0.00;;;;;;;;5122357;27;11386;-96
2022/11/24 12:08:56;;;;;;;;;0.00;0.00;;;;;;;;5132678;27;8891;-96
2022/11/24 12:11:34;;;;;;;;;0.00;0.00;;;;;;;;5119423;27;8810;-96
2022/11/24 12:14:11;;;;;;;;;0.00;0.00;;;;;;;;5121118;27;11435;-96
2022/11/24 12:16:46;;;;;;;;;0.00;0.00;;;;;;;;5115543;27;8827;-96
2022/11/24 12:19:25;;;;;;;;;0.00;0.00;;;;;;;;5114869;27;8812;-96
2022/11/24 12:22:03;;;;;;;;;0.00;0.00;;;;;;;;5118638;27;8873;-96
2022/11/24 12:24:35;;;;;;;;;0.00;0.00;;;;;;;;5119651;27;11356;-96
2022/11/24 12:27:10;;;;;;;;;0.00;0.00;;;;;;;;5126368;27;8784;-96
2022/11/24 12:29:44;;;;;;;;;0.00;0.00;;;;;;;;5118439;27;11418;-96
2022/11/24 12:32:28;;;;;;;;;0.00;0.00;;;;;;;;5119157;27;8828;-96
2022/11/24 12:35:17;;;;;;;;;0.00;0.00;;;;;;;;5112778;27;11293;-96
2022/11/24 12:37:51;;;;;;;;;0.00;0.00;;;;;;;;5117887;27;8811;-96
2022/11/24 12:40:27;;;;;;;;;0.00;0.00;;;;;;;;5122279;27;11373;-96
2022/11/24 12:43:11;;;;;;;;;0.00;0.00;;;;;;;;5120325;27;8800;-96
2022/11/24 12:45:57;;;;;;;;;0.00;0.00;;;;;;;;5118369;27;8753;-96
2022/11/24 12:48:26;;;;;;;;;0.00;0.00;;;;;;;;5114913;27;11403;-96
2022/11/24 12:50:54;;;;;;;;;0.00;0.00;;;;;;;;5120694;27;11349;-96
2022/11/24 12:53:22;;;;;;;;;0.00;0.00;;;;;;;;5127839;27;8796;-96
2022/11/24 12:55:47;;;;;;;;;0.00;0.00;;;;;;;;5122003;27;8812;-96
2022/11/24 12:58:19;;;;;;;;;0.00;0.00;;;;;;;;5123169;27;8813;-96
2022/11/24 13:00:50;;;;;;;;;0.00;0.00;;;;;;;;5121099;27;8837;-96
2022/11/24 13:03:18;;;;;;;;;0.00;0.00;;;;;;;;5121699;27;8764;-96
2022/11/24 13:05:43;;;;;;;;;0.00;0.00;;;;;;;;5134178;27;11322;-96
2022/11/24 13:08:09;;;;;;;;;0.00;0.00;;;;;;;;5131116;27;11376;-96
2022/11/24 13:10:38;;;;;;;;;0.00;0.00;;;;;;;;5122018;27;9121;-96
2022/11/24 13:13:08;;;;;;;;;0.00;0.00;;;;;;;;5125317;27;8804;-95
2022/11/24 13:16:00;;;;;;;;;0.00;0.00;;;;;;;;5124589;27;11329;-96
2022/11/24 13:18:41;;;;;;;;;0.00;0.00;;;;;;;;5103727;28;11376;-96
2022/11/24 13:21:25;;;;;;;;;0.00;0.00;;;;;;;;5109275;27;11420;-96
2022/11/24 13:23:57;;;;;;;;;1.00;1.00;;;;;;;;5109161;27;8822;-95
2022/11/24 13:26:30;;;;;;;;;0.00;0.00;;;;;;;;5091487;28;8890;-96
2022/11/24 13:28:57;;;;;;;;;0.00;0.00;;;;;;;;5115226;27;11357;-96
2022/11/24 13:31:22;;;;;;;;;0.00;0.00;;;;;;;;5105873;28;12315;-95
2022/11/24 13:33:48;;;;;;;;;0.00;0.00;;;;;;;;5106013;27;11431;-96
2022/11/24 13:36:22;;;;;;;;;0.00;0.00;;;;;;;;5114492;27;8823;-96
2022/11/24 13:38:47;;;;;;;;;0.00;0.00;;;;;;;;5112160;27;8834;-96
2022/11/24 13:41:31;;;;;;;;;0.00;0.00;;;;;;;;5110855;27;11522;-96
2022/11/24 13:44:15;;;;;;;;;0.00;0.00;;;;;;;;5108710;27;8794;-96
2022/11/24 13:47:00;;;;;;;;;0.00;0.00;;;;;;;;5116128;27;11394;-96
2022/11/24 13:49:38;;;;;;;;;0.00;0.00;;;;;;;;5118417;27;11457;-96
2022/11/24 13:52:21;;;;;;;;;0.00;0.00;;;;;;;;5115129;27;11443;-96
2022/11/24 13:54:47;;;;;;;;;3.00;3.00;;;;;;;;5104757;27;8754;-96
2022/11/24 13:57:31;;;;;;;;;0.00;0.00;;;;;;;;5121567;27;11430;-96
2022/11/24 13:59:59;;;;;;;;;0.00;0.00;;;;;;;;5116400;27;8814;-96
2022/11/24 14:02:25;;;;;;;;;0.00;0.00;;;;;;;;5116109;27;11426;-96
2022/11/24 14:04:50;;;;;;;;;0.00;0.00;;;;;;;;5133623;27;12175;-96
2022/11/24 14:07:16;;;;;;;;;0.00;0.00;;;;;;;;5116571;27;8826;-96
2022/11/24 14:09:46;;;;;;;;;0.00;0.00;;;;;;;;5118965;27;9596;-96
2022/11/24 14:12:13;;;;;;;;;0.00;0.00;;;;;;;;5100047;28;8865;-96
2022/11/24 14:14:39;;;;;;;;;0.00;0.00;;;;;;;;5129491;27;11518;-96
2022/11/24 14:17:05;;;;;;;;;0.00;0.00;;;;;;;;5130368;27;11432;-96
2022/11/24 14:19:31;;;;;;;;;0.00;0.00;;;;;;;;5126980;27;8810;-96
2022/11/24 14:21:56;;;;;;;;;0.00;0.00;;;;;;;;5103711;27;11476;-95
2022/11/24 14:24:29;;;;;;;;;0.00;0.00;;;;;;;;5115973;27;8815;-96
2022/11/24 14:26:54;;;;;;;;;0.00;0.00;;;;;;;;5124045;27;9677;-96
2022/11/24 14:29:20;;;;;;;;;0.00;0.00;;;;;;;;5107087;27;8845;-96
2022/11/24 14:31:56;;;;;;;;;0.00;0.00;;;;;;;;5106953;27;8815;-96
2022/11/24 14:34:22;;;;;;;;;0.00;0.00;;;;;;;;5109082;27;11451;-96
2022/11/24 14:36:48;;;;;;;;;0.00;0.00;;;;;;;;5104815;27;11394;-96
2022/11/24 14:39:15;;;;;;;;;0.00;0.00;;;;;;;;5118401;27;11490;-96
2022/11/24 14:41:41;;;;;;;;;0.00;0.00;;;;;;;;5109158;27;8838;-95
2022/11/24 14:44:19;;;;;;;;;0.00;0.00;;;;;;;;5125889;27;11403;-96
2022/11/24 14:46:44;;;;;;;;;1.67;1.67;;;;;;;;5109402;27;11369;-96
2022/11/24 14:49:15;;;;;;;;;0.00;0.00;;;;;;;;5100564;28;8814;-96
2022/11/24 14:51:42;;;;;;;;;0.00;0.00;;;;;;;;5095105;27;9001;-94
2022/11/24 14:54:16;;;;;;;;;0.00;0.00;;;;;;;;5115832;27;8811;-96
2022/11/24 14:56:54;;;;;;;;;0.00;0.00;;;;;;;;5108481;27;8796;-96
2022/11/24 14:59:21;;;;;;;;;0.00;0.00;;;;;;;;5114929;27;8742;-96
2022/11/24 15:01:46;;;;;;;;;0.00;0.00;;;;;;;;5123011;27;8820;-96
2022/11/24 15:04:18;;;;;;;;;0.00;0.00;;;;;;;;5112889;27;9276;-96
2022/11/24 15:06:45;;;;;;;;;0.00;0.00;;;;;;;;5105197;27;8802;-94
2022/11/24 15:09:40;;;;;;;;;0.00;0.00;;;;;;;;5113203;27;11392;-96
2022/11/24 15:12:17;;;;;;;;;0.00;0.00;;;;;;;;5108797;27;8857;-96